createdAt,value
2022-12-01T00:00:09.917Z,8.00
2022-12-01T00:02:36.569Z,8.00
2022-12-01T00:05:03.282Z,8.00
2022-12-01T00:07:32.243Z,8.00
2022-12-01T00:10:17.547Z,8.00
2022-12-01T00:12:46.271Z,8.00
2022-12-01T00:15:13.145Z,8.00
2022-12-01T00:17:39.734Z,8.00
2022-12-01T00:20:09.470Z,7.90
2022-12-01T00:22:35.999Z,7.90
2022-12-01T00:25:02.663Z,7.80
2022-12-01T00:27:29.216Z,7.80
2022-12-01T00:29:55.727Z,7.80
2022-12-01T00:32:22.337Z,7.70
2022-12-01T00:34:48.843Z,7.70
2022-12-01T00:37:15.401Z,7.70
2022-12-01T00:39:41.970Z,7.80
2022-12-01T00:42:13.129Z,7.70
2022-12-01T00:44:40.171Z,7.70
2022-12-01T00:47:06.715Z,7.60
2022-12-01T00:49:33.369Z,7.60
2022-12-01T00:51:59.955Z,7.60
2022-12-01T00:54:26.516Z,7.70
2022-12-01T00:56:53.075Z,7.70
2022-12-01T00:59:21.818Z,7.70
2022-12-01T01:01:49.515Z,7.80
2022-12-01T01:04:18.567Z,7.70
2022-12-01T01:06:45.250Z,7.70
2022-12-01T01:09:17.351Z,7.70
2022-12-01T01:11:43.903Z,7.70
2022-12-01T01:14:10.475Z,7.70
2022-12-01T01:16:37.203Z,7.70
2022-12-01T01:19:03.806Z,7.80
2022-12-01T01:21:32.640Z,7.80
2022-12-01T01:23:59.207Z,7.80
2022-12-01T01:26:27.633Z,7.80
2022-12-01T01:28:56.979Z,7.80
2022-12-01T01:31:25.024Z,7.90
2022-12-01T01:33:54.670Z,7.90
2022-12-01T01:36:21.219Z,7.90
2022-12-01T01:38:51.493Z,7.90
2022-12-01T01:41:21.084Z,7.90
2022-12-01T01:43:52.329Z,7.90
2022-12-01T01:46:20.019Z,7.80
2022-12-01T01:48:52.050Z,7.70
2022-12-01T01:51:21.098Z,7.70
2022-12-01T01:53:48.151Z,7.80
2022-12-01T01:56:14.882Z,7.60
2022-12-01T01:58:41.666Z,7.60
2022-12-01T02:01:08.767Z,7.50
2022-12-01T02:03:35.614Z,7.20
2022-12-01T02:06:05.136Z,7.20
2022-12-01T02:08:34.002Z,7.20
2022-12-01T02:11:18.979Z,7.30
2022-12-01T02:13:58.489Z,7.20
2022-12-01T02:16:35.188Z,7.30
2022-12-01T02:19:14.035Z,7.30
2022-12-01T02:21:52.839Z,7.30
2022-12-01T02:24:38.170Z,7.40
2022-12-01T02:27:29.374Z,7.40
2022-12-01T02:30:12.485Z,7.40
2022-12-01T02:32:56.706Z,7.50
2022-12-01T02:35:29.547Z,7.50
2022-12-01T02:38:14.048Z,7.50
2022-12-01T02:40:47.035Z,7.50
2022-12-01T02:43:22.900Z,7.50
2022-12-01T02:45:55.656Z,7.50
2022-12-01T02:48:27.742Z,7.50
2022-12-01T02:51:01.046Z,7.60
2022-12-01T02:53:27.781Z,7.60
2022-12-01T02:55:55.283Z,7.60
2022-12-01T02:58:21.821Z,7.70
2022-12-01T03:01:07.301Z,7.60
2022-12-01T03:03:52.524Z,7.60
2022-12-01T03:06:38.122Z,7.60
2022-12-01T03:09:12.792Z,7.60
2022-12-01T03:11:47.865Z,7.60
2022-12-01T03:14:35.153Z,7.60
2022-12-01T03:17:05.603Z,7.60
2022-12-01T03:19:58.371Z,7.60
2022-12-01T03:22:46.722Z,7.60
2022-12-01T03:25:13.695Z,7.60
2022-12-01T03:28:13.436Z,7.50
2022-12-01T03:30:33.342Z,7.50
2022-12-01T03:33:13.873Z,7.50
2022-12-01T03:35:48.075Z,7.60
2022-12-01T03:38:17.307Z,7.60
2022-12-01T03:40:44.774Z,7.50
2022-12-01T03:43:17.115Z,7.40
2022-12-01T03:45:58.857Z,7.40
2022-12-01T03:48:27.879Z,7.40
2022-12-01T03:50:54.358Z,7.40
2022-12-01T03:53:27.306Z,7.40
2022-12-01T03:56:00.328Z,7.40
2022-12-01T03:58:30.545Z,7.30
2022-12-01T04:00:58.399Z,7.30
2022-12-01T04:03:26.029Z,7.30
2022-12-01T04:05:52.660Z,7.20
2022-12-01T04:08:19.267Z,7.10
2022-12-01T04:10:48.025Z,7.10
2022-12-01T04:13:23.088Z,7.10
2022-12-01T04:15:52.889Z,7.10
2022-12-01T04:18:19.895Z,7.10
2022-12-01T04:20:47.017Z,7.10
2022-12-01T04:23:36.348Z,7.10
2022-12-01T04:26:04.248Z,7.10
2022-12-01T04:28:31.215Z,7.20
2022-12-01T04:30:57.900Z,7.20
2022-12-01T04:33:24.453Z,7.20
2022-12-01T04:36:00.101Z,7.20
2022-12-01T04:38:31.039Z,7.10
2022-12-01T04:40:57.830Z,7.10
2022-12-01T04:43:24.500Z,7.10
2022-12-01T04:45:50.993Z,7.10
2022-12-01T04:48:17.529Z,7.00
2022-12-01T04:50:48.443Z,7.10
2022-12-01T04:53:14.964Z,7.00
2022-12-01T04:55:41.509Z,7.00
2022-12-01T04:58:08.016Z,7.00
2022-12-01T05:00:34.586Z,6.90
2022-12-01T05:03:04.448Z,6.90
2022-12-01T05:05:31.116Z,6.10
2022-12-01T05:08:00.750Z,7.00
2022-12-01T05:10:27.625Z,7.10
2022-12-01T05:12:55.111Z,7.10
2022-12-01T05:15:21.619Z,6.90
2022-12-01T05:17:48.194Z,6.90
2022-12-01T05:20:38.860Z,6.80
2022-12-01T05:23:06.450Z,6.80
2022-12-01T05:25:33.891Z,6.70
2022-12-01T05:28:02.681Z,6.80
2022-12-01T05:30:29.373Z,6.80
2022-12-01T05:32:55.888Z,6.80
2022-12-01T05:35:24.878Z,6.90
2022-12-01T05:37:51.448Z,6.90
2022-12-01T05:40:18.030Z,7.00
2022-12-01T05:42:47.003Z,7.00
2022-12-01T05:45:13.597Z,6.90
2022-12-01T05:47:40.253Z,7.00
2022-12-01T05:50:07.251Z,7.00
2022-12-01T05:52:35.141Z,7.00
2022-12-01T05:55:02.311Z,7.00
2022-12-01T05:57:28.900Z,6.90
2022-12-01T05:59:55.436Z,6.80
2022-12-01T06:02:26.657Z,6.90
2022-12-01T06:04:53.638Z,6.80
2022-12-01T06:07:20.853Z,6.80
2022-12-01T06:09:47.809Z,6.80
2022-12-01T06:12:14.619Z,6.80
2022-12-01T06:14:41.463Z,6.80
2022-12-01T06:17:08.027Z,6.80
2022-12-01T06:19:34.649Z,6.70
2022-12-01T06:22:01.183Z,6.70
2022-12-01T06:24:30.182Z,6.70
2022-12-01T06:26:56.800Z,6.60
2022-12-01T06:29:25.580Z,6.60
2022-12-01T06:31:52.244Z,6.50
2022-12-01T06:34:18.791Z,6.50
2022-12-01T06:36:47.710Z,6.50
2022-12-01T06:39:15.203Z,6.50
2022-12-01T06:41:41.763Z,6.50
2022-12-01T06:44:08.274Z,6.50
2022-12-01T06:46:37.853Z,6.40
2022-12-01T06:49:04.757Z,6.40
2022-12-01T06:51:33.799Z,6.40
2022-12-01T06:54:05.295Z,6.40
2022-12-01T06:56:32.291Z,6.40
2022-12-01T06:59:01.324Z,6.40
2022-12-01T07:01:28.576Z,6.40
2022-12-01T07:03:55.360Z,6.40
2022-12-01T07:06:22.322Z,6.40
2022-12-01T07:08:48.906Z,6.40
2022-12-01T07:11:15.898Z,6.30
2022-12-01T07:13:45.903Z,6.30
2022-12-01T07:16:15.683Z,6.20
2022-12-01T07:18:44.451Z,6.20
2022-12-01T07:21:14.390Z,6.20
2022-12-01T07:23:41.134Z,6.20
2022-12-01T07:26:10.180Z,6.20
2022-12-01T07:28:36.738Z,6.20
2022-12-01T07:31:08.721Z,6.20
2022-12-01T07:33:35.352Z,6.10
2022-12-01T07:36:04.789Z,6.10
2022-12-01T07:38:31.769Z,6.10
2022-12-01T07:41:02.269Z,6.00
2022-12-01T07:43:29.913Z,5.90
2022-12-01T07:45:56.554Z,5.90
2022-12-01T07:48:23.340Z,5.90
2022-12-01T07:50:49.907Z,5.90
2022-12-01T07:53:18.912Z,5.90
2022-12-01T07:55:50.736Z,5.90
2022-12-01T07:58:17.287Z,5.90
2022-12-01T08:00:46.099Z,5.90
2022-12-01T08:03:15.011Z,5.90
2022-12-01T08:05:46.283Z,6.00
2022-12-01T08:08:15.140Z,6.00
2022-12-01T08:10:41.786Z,6.00
2022-12-01T08:13:15.768Z,6.00
2022-12-01T08:15:44.223Z,6.00
2022-12-01T08:18:10.970Z,6.00
2022-12-01T08:20:37.537Z,6.00
2022-12-01T08:23:04.210Z,6.00
2022-12-01T08:25:33.218Z,5.90
2022-12-01T08:28:00.188Z,5.90
2022-12-01T08:30:27.062Z,5.90
2022-12-01T08:32:54.327Z,5.80
2022-12-01T08:35:20.863Z,5.80
2022-12-01T08:37:49.839Z,5.80
2022-12-01T08:40:16.418Z,5.80
2022-12-01T08:42:42.944Z,5.90
2022-12-01T08:45:11.941Z,5.80
2022-12-01T08:47:38.518Z,5.70
2022-12-01T08:50:06.205Z,5.70
2022-12-01T08:52:33.150Z,5.70
2022-12-01T08:54:59.757Z,5.80
2022-12-01T08:57:26.450Z,5.90
2022-12-01T08:59:52.998Z,5.90
2022-12-01T09:02:22.297Z,6.00
2022-12-01T09:04:51.645Z,6.00
2022-12-01T09:07:22.929Z,5.90
2022-12-01T09:09:52.941Z,5.90
2022-12-01T09:12:19.537Z,5.90
2022-12-01T09:14:49.606Z,5.80
2022-12-01T09:17:16.976Z,5.90
2022-12-01T09:19:46.561Z,6.00
2022-12-01T09:22:13.269Z,6.00
2022-12-01T09:24:39.885Z,6.10
2022-12-01T09:27:06.588Z,6.10
2022-12-01T09:29:33.215Z,6.10
2022-12-01T09:32:00.183Z,6.10
2022-12-01T09:34:31.686Z,6.10
2022-12-01T09:37:01.240Z,6.20
2022-12-01T09:39:27.848Z,6.20
2022-12-01T09:41:54.465Z,6.00
2022-12-01T09:44:22.700Z,6.10
2022-12-01T09:46:55.530Z,6.10
2022-12-01T09:49:24.073Z,6.10
2022-12-01T09:51:52.504Z,6.00
2022-12-01T09:54:19.405Z,6.10
2022-12-01T09:56:47.299Z,6.00
2022-12-01T09:59:17.823Z,6.00
2022-12-01T10:01:46.384Z,5.90
2022-12-01T10:04:17.407Z,5.90
2022-12-01T10:06:46.337Z,5.80
2022-12-01T10:09:33.168Z,5.90
2022-12-01T10:12:08.618Z,5.80
2022-12-01T10:14:36.380Z,5.80
2022-12-01T10:17:05.902Z,5.70
2022-12-01T10:19:54.752Z,5.70
2022-12-01T10:22:23.841Z,5.70
2022-12-01T10:24:50.325Z,5.70
2022-12-01T10:27:27.837Z,5.70
2022-12-01T10:30:07.250Z,5.70
2022-12-01T10:32:45.719Z,5.70
2022-12-01T10:35:15.361Z,5.70
2022-12-01T10:37:43.513Z,5.70
2022-12-01T10:40:15.776Z,5.70
2022-12-01T10:42:46.836Z,5.60
2022-12-01T10:45:22.475Z,5.70
2022-12-01T10:48:07.809Z,5.70
2022-12-01T10:50:35.643Z,5.70
2022-12-01T10:53:02.442Z,5.80
2022-12-01T10:55:31.476Z,5.80
2022-12-01T10:58:00.850Z,5.80
2022-12-01T11:00:58.645Z,5.80
2022-12-01T11:03:25.533Z,5.80
2022-12-01T11:05:59.496Z,5.70
2022-12-01T11:08:42.977Z,5.70
2022-12-01T11:11:35.538Z,5.70
2022-12-01T11:14:04.325Z,5.70
2022-12-01T11:16:36.091Z,5.80
2022-12-01T11:19:21.919Z,5.80
2022-12-01T11:21:56.716Z,5.80
2022-12-01T11:24:39.734Z,5.90
2022-12-01T11:27:13.643Z,5.90
2022-12-01T11:29:42.871Z,5.90
2022-12-01T11:32:18.060Z,5.90
2022-12-01T11:34:53.148Z,5.90
2022-12-01T11:37:23.414Z,5.90
2022-12-01T11:39:51.280Z,5.80
2022-12-01T11:42:28.998Z,5.80
2022-12-01T11:44:59.704Z,5.80
2022-12-01T11:47:30.001Z,5.90
2022-12-01T11:50:00.333Z,5.80
2022-12-01T11:52:29.864Z,5.80
2022-12-01T11:54:56.396Z,5.70
2022-12-01T11:57:35.517Z,5.80
2022-12-01T12:00:06.376Z,5.90
2022-12-01T12:02:38.234Z,5.80
2022-12-01T12:05:20.153Z,5.90
2022-12-01T12:07:47.581Z,5.90
2022-12-01T12:10:32.005Z,5.80
2022-12-01T12:13:07.820Z,5.80
2022-12-01T12:15:58.139Z,5.70
2022-12-01T12:18:42.845Z,5.70
2022-12-01T12:21:18.666Z,5.70
2022-12-01T12:24:07.616Z,5.60
2022-12-01T12:26:50.784Z,5.60
2022-12-01T12:29:22.062Z,5.60
2022-12-01T12:31:48.597Z,5.50
2022-12-01T12:34:33.607Z,5.50
2022-12-01T12:37:09.322Z,5.50
2022-12-01T12:39:49.415Z,5.40
2022-12-01T12:42:19.056Z,5.40
2022-12-01T12:44:52.622Z,5.40
2022-12-01T12:47:27.245Z,5.40
2022-12-01T12:50:06.161Z,5.40
2022-12-01T12:52:41.122Z,5.30
2022-12-01T12:55:25.296Z,5.30
2022-12-01T12:58:10.793Z,5.30
2022-12-01T13:00:40.582Z,5.30
2022-12-01T13:03:17.633Z,5.40
2022-12-01T13:05:50.351Z,5.40
2022-12-01T13:08:16.873Z,5.40
2022-12-01T13:10:43.709Z,5.40
2022-12-01T13:13:19.207Z,5.40
2022-12-01T13:15:49.130Z,5.50
2022-12-01T13:18:21.811Z,5.40
2022-12-01T13:20:51.781Z,5.40
2022-12-01T13:23:19.511Z,5.40
2022-12-01T13:25:48.694Z,5.40
2022-12-01T13:28:18.749Z,5.40
2022-12-01T13:31:17.609Z,5.30
2022-12-01T13:33:53.267Z,5.30
2022-12-01T13:39:13.248Z,5.40
2022-12-01T13:41:40.370Z,5.40
2022-12-01T13:44:28.450Z,5.50
2022-12-01T13:47:10.474Z,5.50
2022-12-01T13:49:39.537Z,5.50
2022-12-01T13:52:21.481Z,5.40
2022-12-01T13:55:06.694Z,5.50
2022-12-01T13:57:35.016Z,5.60
2022-12-01T14:00:04.334Z,5.50
2022-12-01T14:02:34.593Z,5.40
2022-12-01T14:05:19.875Z,5.50
2022-12-01T14:07:51.318Z,5.50
2022-12-01T14:10:23.749Z,5.50
2022-12-01T14:12:51.240Z,5.50
2022-12-01T14:15:23.566Z,5.50
2022-12-01T14:18:03.188Z,5.50
2022-12-01T14:20:34.455Z,5.40
2022-12-01T14:23:10.859Z,5.40
2022-12-01T14:25:38.332Z,5.40
2022-12-01T14:28:12.097Z,5.50
2022-12-01T14:30:41.685Z,5.50
2022-12-01T14:33:27.510Z,5.40
2022-12-01T14:35:54.261Z,5.30
2022-12-01T14:38:20.890Z,5.30
2022-12-01T14:40:47.516Z,5.40
2022-12-01T14:43:33.232Z,5.40
2022-12-01T14:46:10.650Z,5.50
2022-12-01T14:48:45.327Z,5.50
2022-12-01T14:51:23.883Z,5.50
2022-12-01T14:53:50.615Z,5.50
2022-12-01T14:56:21.410Z,5.40
2022-12-01T14:58:55.261Z,5.40
2022-12-01T15:01:24.356Z,5.40
2022-12-01T15:03:55.408Z,5.50
2022-12-01T15:06:23.156Z,5.50
2022-12-01T15:09:33.004Z,5.50
2022-12-01T15:12:00.087Z,5.50
2022-12-01T15:14:34.260Z,5.50
2022-12-01T15:17:02.653Z,5.50
2022-12-01T15:19:34.297Z,5.60
2022-12-01T15:22:04.213Z,5.60
2022-12-01T15:24:30.956Z,5.60
2022-12-01T15:27:03.479Z,5.60
2022-12-01T15:29:45.443Z,5.60
2022-12-01T15:32:16.555Z,5.60
2022-12-01T15:34:45.911Z,5.60
2022-12-01T15:37:25.650Z,5.60
2022-12-01T15:40:10.071Z,5.60
2022-12-01T15:42:43.461Z,5.50
2022-12-01T15:45:20.594Z,5.50
2022-12-01T15:47:52.980Z,5.60
2022-12-01T15:50:31.005Z,5.50
2022-12-01T15:52:58.695Z,5.60
2022-12-01T15:55:31.090Z,5.60
2022-12-01T15:58:01.140Z,5.50
2022-12-01T16:00:30.187Z,5.60
2022-12-01T16:03:02.042Z,5.60
2022-12-01T16:05:30.702Z,5.60
2022-12-01T16:08:13.898Z,5.60
2022-12-01T16:10:43.114Z,5.60
2022-12-01T16:13:28.602Z,5.60
2022-12-01T16:15:55.242Z,5.60
2022-12-01T16:18:32.098Z,5.60
2022-12-01T16:21:02.732Z,5.60
2022-12-01T16:23:32.055Z,5.60
2022-12-01T16:26:03.384Z,5.50
2022-12-01T16:28:37.264Z,5.50
2022-12-01T16:31:05.718Z,5.50
2022-12-01T16:33:35.394Z,5.50
2022-12-01T16:36:06.917Z,5.50
2022-12-01T16:38:35.682Z,5.40
2022-12-01T16:41:13.891Z,5.40
2022-12-01T16:43:59.157Z,5.50
2022-12-01T16:46:29.280Z,5.50
2022-12-01T16:48:55.846Z,5.50
2022-12-01T16:51:29.940Z,5.50
2022-12-01T16:54:10.727Z,5.50
2022-12-01T16:56:37.359Z,5.50
2022-12-01T16:59:04.884Z,5.40
2022-12-01T17:01:31.502Z,5.40
2022-12-01T17:03:58.057Z,5.40
2022-12-01T17:06:26.753Z,5.50
2022-12-01T17:08:53.353Z,5.50
2022-12-01T17:11:19.893Z,5.60
2022-12-01T17:13:46.495Z,5.60
2022-12-01T17:16:18.135Z,5.50
2022-12-01T17:18:45.448Z,5.60
2022-12-01T17:21:14.427Z,5.60
2022-12-01T17:23:43.300Z,5.60
2022-12-01T17:26:11.399Z,5.60
2022-12-01T17:28:38.597Z,5.50
2022-12-01T17:31:05.429Z,5.50
2022-12-01T17:33:32.558Z,5.50
2022-12-01T17:36:00.014Z,5.60
2022-12-01T17:38:26.609Z,5.60
2022-12-01T17:41:06.813Z,5.50
2022-12-01T17:43:37.821Z,5.50
2022-12-01T17:46:05.650Z,5.60
2022-12-01T17:48:36.823Z,5.60
2022-12-01T17:51:03.859Z,5.60
2022-12-01T17:53:30.492Z,5.60
2022-12-01T17:55:57.064Z,5.60
2022-12-01T17:58:23.629Z,5.60
2022-12-01T18:00:50.830Z,5.60
2022-12-01T18:03:20.651Z,5.60
2022-12-01T18:05:57.121Z,5.60
2022-12-01T18:08:26.906Z,5.60
2022-12-01T18:10:53.882Z,5.60
2022-12-01T18:13:21.527Z,5.60
2022-12-01T18:15:48.466Z,5.60
2022-12-01T18:18:15.218Z,5.60
2022-12-01T18:20:44.517Z,5.60
2022-12-01T18:23:12.706Z,5.60
2022-12-01T18:25:39.886Z,5.50
2022-12-01T18:28:06.909Z,5.50
2022-12-01T18:30:33.949Z,5.50
2022-12-01T18:33:00.827Z,5.40
2022-12-01T18:35:31.734Z,5.40
2022-12-01T18:37:58.664Z,5.40
2022-12-01T18:40:27.629Z,5.40
2022-12-01T18:42:54.247Z,5.40
2022-12-01T18:45:21.625Z,5.40
2022-12-01T18:47:48.368Z,5.40
2022-12-01T18:50:16.302Z,5.30
2022-12-01T18:52:43.214Z,5.40
2022-12-01T18:55:10.132Z,5.30
2022-12-01T18:57:37.442Z,5.30
2022-12-01T19:00:06.635Z,5.40
2022-12-01T19:02:36.116Z,5.40
2022-12-01T19:05:03.392Z,5.40
2022-12-01T19:07:30.892Z,5.50
2022-12-01T19:10:00.178Z,5.50
2022-12-01T19:12:26.755Z,5.50
2022-12-01T19:14:54.235Z,5.40
2022-12-01T19:17:20.874Z,5.40
2022-12-01T19:19:47.439Z,5.40
2022-12-01T19:22:16.168Z,5.40
2022-12-01T19:24:45.980Z,5.30
2022-12-01T19:27:17.003Z,5.30
2022-12-01T19:29:43.541Z,5.30
2022-12-01T19:32:10.353Z,5.30
2022-12-01T19:34:37.002Z,5.30
2022-12-01T19:37:03.705Z,5.30
2022-12-01T19:39:30.342Z,5.30
2022-12-01T19:41:57.506Z,5.30
2022-12-01T19:44:24.103Z,5.20
2022-12-01T19:46:50.627Z,5.20
2022-12-01T19:49:19.439Z,5.20
2022-12-01T19:51:45.991Z,5.20
2022-12-01T19:54:16.188Z,5.20
2022-12-01T19:56:42.839Z,5.20
2022-12-01T19:59:11.455Z,5.10
2022-12-01T20:01:38.168Z,5.10
2022-12-01T20:04:04.812Z,5.10
2022-12-01T20:06:35.359Z,5.10
2022-12-01T20:09:03.275Z,5.10
2022-12-01T20:11:31.492Z,5.00
2022-12-01T20:14:00.920Z,4.90
2022-12-01T20:16:30.629Z,4.90
2022-12-01T20:19:01.910Z,4.90
2022-12-01T20:21:30.359Z,4.90
2022-12-01T20:23:58.258Z,4.90
2022-12-01T20:26:30.204Z,4.90
2022-12-01T20:28:59.336Z,5.00
2022-12-01T20:31:26.511Z,4.90
2022-12-01T20:33:54.297Z,4.90
2022-12-01T20:36:23.728Z,4.90
2022-12-01T20:38:50.488Z,4.90
2022-12-01T20:41:19.850Z,4.80
2022-12-01T20:43:46.402Z,4.80
2022-12-01T20:46:14.012Z,4.80
2022-12-01T20:48:40.823Z,4.80
2022-12-01T20:51:07.992Z,4.80
2022-12-01T20:53:36.929Z,4.80
2022-12-01T20:56:06.668Z,4.80
2022-12-01T20:58:37.723Z,4.80
2022-12-01T21:01:17.352Z,4.80
2022-12-01T21:03:45.202Z,4.80
2022-12-01T21:06:14.920Z,4.90
2022-12-01T21:08:42.137Z,5.00
2022-12-01T21:11:20.030Z,5.00
2022-12-01T21:13:46.810Z,5.00
2022-12-01T21:16:16.566Z,5.00
2022-12-01T21:18:46.159Z,5.00
2022-12-01T21:21:21.914Z,4.90
2022-12-01T21:24:00.410Z,4.80
2022-12-01T21:26:26.968Z,4.80
2022-12-01T21:28:55.332Z,4.80
2022-12-01T21:31:21.977Z,4.80
2022-12-01T21:33:48.650Z,4.80
2022-12-01T21:36:17.010Z,4.90
2022-12-01T21:38:44.025Z,4.90
2022-12-01T21:41:29.490Z,4.90
2022-12-01T21:44:02.531Z,4.90
2022-12-01T21:46:29.620Z,4.90
2022-12-01T21:48:56.207Z,4.90
2022-12-01T21:51:27.446Z,4.80
2022-12-01T21:53:56.585Z,4.80
2022-12-01T21:56:31.607Z,4.70
2022-12-01T21:59:18.161Z,4.70
2022-12-01T22:01:44.908Z,4.70
2022-12-01T22:04:22.141Z,4.70
2022-12-01T22:06:53.275Z,4.70
2022-12-01T22:09:22.485Z,4.70
2022-12-01T22:11:56.568Z,4.70
2022-12-01T22:14:32.254Z,4.70
2022-12-01T22:17:07.907Z,4.70
2022-12-01T22:19:37.344Z,4.70
2022-12-01T22:22:15.563Z,4.70
2022-12-01T22:24:51.757Z,4.70
2022-12-01T22:27:21.496Z,4.70
2022-12-01T22:29:49.080Z,4.70
2022-12-01T22:32:15.639Z,4.80
2022-12-01T22:34:45.135Z,4.80
2022-12-01T22:37:37.494Z,4.80
2022-12-01T22:40:24.016Z,4.80
2022-12-01T22:42:50.572Z,4.80
2022-12-01T22:45:22.937Z,4.70
2022-12-01T22:47:52.241Z,4.70
2022-12-01T22:50:32.447Z,4.70
2022-12-01T22:52:59.819Z,4.70
2022-12-01T22:55:28.796Z,4.70
2022-12-01T22:57:55.370Z,4.80
2022-12-01T23:00:24.885Z,4.80
2022-12-01T23:02:54.175Z,4.80
2022-12-01T23:05:21.205Z,4.80
2022-12-01T23:07:50.046Z,4.70
2022-12-01T23:10:20.899Z,4.70
2022-12-01T23:12:51.677Z,4.70
2022-12-01T23:15:31.099Z,4.70
2022-12-01T23:17:59.359Z,4.70
2022-12-01T23:20:28.017Z,4.70
2022-12-01T23:22:55.779Z,4.70
2022-12-01T23:25:23.744Z,4.80
2022-12-01T23:27:51.443Z,4.70
2022-12-01T23:30:18.907Z,4.80
2022-12-01T23:32:48.585Z,4.70
2022-12-01T23:35:18.793Z,4.70
2022-12-01T23:37:47.350Z,4.60
2022-12-01T23:40:40.383Z,4.60
2022-12-01T23:43:23.299Z,4.60
2022-12-01T23:45:51.656Z,4.60
2022-12-01T23:48:21.519Z,4.70
2022-12-01T23:50:53.366Z,4.60
2022-12-01T23:53:30.899Z,4.60
2022-12-01T23:56:04.406Z,4.60
2022-12-01T23:58:31.014Z,4.60
